Time;durP1;ratioP1;P1;durP2;ratioP2;P2;SDS_P1;SDS_P2;PMS_P1;PMS_P2;Temp;Humidity;BMP_temperature;BMP_pressure;BME280_temperature;BME280_humidity;BME280_pressure;Samples;Min_cycle;Max_cycle;Signal;HPM_P1;HPM_P2
2023/10/21 00:02:15;;;;;;;;;7.00;5.67;;;;;18.04;74.34;100902.03;146609;591;46020;-69
2023/10/21 00:05:16;;;;;;;;;7.67;7.00;;;;;18.08;74.37;100901.25;146603;668;46016;-67
2023/10/21 00:08:13;;;;;;;;;4.00;4.00;;;;;18.10;73.87;100902.16;146608;585;46020;-68
2023/10/21 00:11:12;;;;;;;;;7.00;4.00;;;;;18.03;73.81;100895.00;146607;651;46016;-68
2023/10/21 00:14:20;;;;;;;;;5.67;5.67;;;;;17.99;74.49;100899.31;146610;674;45020;-69
2023/10/21 00:17:18;;;;;;;;;7.00;6.00;;;;;17.94;74.94;100893.97;146605;698;46016;-70
2023/10/21 00:20:14;;;;;;;;;7.67;6.67;;;;;17.95;75.35;100884.34;146608;620;47011;-70
2023/10/21 00:23:12;;;;;;;;;6.00;6.00;;;;;17.90;75.45;100883.34;146606;569;46012;-69
2023/10/21 00:26:07;;;;;;;;;9.00;6.67;;;;;17.87;75.49;100891.13;146608;579;46015;-69
2023/10/21 00:29:11;;;;;;;;;11.00;9.00;;;;;17.89;75.54;100895.56;146603;678;47012;-69
2023/10/21 00:32:20;;;;;;;;;9.00;6.00;;;;;17.86;75.57;100881.50;146607;621;46020;-69
2023/10/21 00:35:12;;;;;;;;;7.67;7.00;;;;;17.75;75.86;100886.44;146603;617;46017;-70
2023/10/21 00:38:07;;;;;;;;;8.00;8.00;;;;;17.73;77.19;100885.53;146605;586;47020;-70
2023/10/21 00:41:01;;;;;;;;;8.00;6.00;;;;;17.67;78.91;100880.13;146604;675;47576;-69
2023/10/21 00:43:54;;;;;;;;;8.33;7.33;;;;;17.58;78.85;100880.78;146610;569;45023;-72
2023/10/21 00:47:01;;;;;;;;;9.00;9.00;;;;;17.55;78.97;100878.97;146605;693;46016;-69
2023/10/21 00:50:07;;;;;;;;;10.67;8.67;;;;;17.55;78.72;100870.22;146608;570;46021;-70
2023/10/21 00:53:05;;;;;;;;;8.00;7.00;;;;;17.52;78.48;100881.50;146604;577;46016;-70
2023/10/21 00:56:12;;;;;;;;;8.67;8.00;;;;;17.55;78.00;100872.84;146610;564;46020;-69
2023/10/21 00:59:11;;;;;;;;;9.67;9.67;;;;;17.60;79.28;100871.25;146605;583;47027;-68
2023/10/21 01:02:07;;;;;;;;;22.75;17.25;;;;;17.65;79.83;100881.81;146607;569;46020;-67
2023/10/21 01:05:15;;;;;;;;;15.00;13.00;;;;;17.65;79.20;100871.34;146602;582;47017;-68
2023/10/21 01:08:22;;;;;;;;;11.33;11.00;;;;;17.70;79.23;100878.47;146607;611;46020;-69
2023/10/21 01:11:22;;;;;;;;;12.33;9.33;;;;;17.70;78.82;100869.72;146605;587;46017;-67
2023/10/21 01:14:20;;;;;;;;;9.00;6.00;;;;;17.73;77.77;100875.03;146605;578;46020;-67
2023/10/21 01:17:18;;;;;;;;;8.00;7.33;;;;;17.72;78.16;100868.88;146608;564;46012;-68
2023/10/21 01:20:17;;;;;;;;;8.67;5.67;;;;;17.68;78.04;100872.28;146612;601;46010;-69
2023/10/21 01:23:11;;;;;;;;;6.67;5.00;;;;;17.62;78.18;100874.75;146608;668;46012;-70
2023/10/21 01:26:06;;;;;;;;;7.00;7.00;;;;;17.56;77.48;100874.59;146612;678;46010;-70
2023/10/21 01:29:21;;;;;;;;;6.67;5.00;;;;;17.55;77.53;100875.47;146607;596;46016;-69
2023/10/21 01:32:16;;;;;;;;;7.00;5.33;;;;;17.60;77.94;100870.31;146606;675;46015;-70
2023/10/21 01:35:18;;;;;;;;;8.67;4.67;;;;;17.59;76.93;100863.31;146606;647;46914;-68
2023/10/21 01:38:17;;;;;;;;;7.00;4.00;;;;;17.55;76.47;100863.25;146610;672;46020;-69
2023/10/21 01:41:36;;;;;;;;;5.00;5.00;;;;;16.33;75.91;100671.44;146606;598;46016;-68
2023/10/21 01:44:30;;;;;;;;;9.00;5.33;;;;;17.60;74.43;100870.31;146605;592;47020;-70
2023/10/21 01:47:27;;;;;;;;;6.33;4.00;;;;;17.57;74.19;100871.16;146600;584;48913;-70
2023/10/21 01:50:20;;;;;;;;;3.67;3.67;;;;;17.54;73.65;100879.84;146610;611;46014;-70
2023/10/21 01:53:15;;;;;;;;;5.67;3.00;;;;;17.51;72.66;100865.75;146606;615;46016;-70
2023/10/21 01:56:13;;;;;;;;;4.33;4.33;;;;;17.44;73.15;100864.69;146608;586;47011;-71
2023/10/21 01:59:14;;;;;;;;;5.33;5.33;;;;;17.40;72.09;100865.47;146602;607;47014;-70
2023/10/21 02:02:07;;;;;;;;;7.33;5.00;;;;;17.35;71.99;100872.31;146605;577;46020;-70
2023/10/21 02:05:01;;;;;;;;;4.00;4.00;;;;;17.36;73.19;100868.88;146607;620;46016;-68
2023/10/21 02:07:55;;;;;;;;;3.67;3.00;;;;;17.40;73.22;100865.47;146608;595;46020;-69
2023/10/21 02:10:56;;;;;;;;;6.00;3.67;;;;;17.37;72.17;100861.88;146603;672;46017;-70
2023/10/21 02:13:52;;;;;;;;;8.00;6.00;;;;;17.32;72.37;100869.66;146607;573;46010;-67
2023/10/21 02:17:03;;;;;;;;;4.00;3.00;;;;;16.09;72.71;100648.09;146626;603;47022;-69
2023/10/21 02:20:09;;;;;;;;;6.00;3.00;;;;;17.38;72.95;100877.63;146628;569;46020;-69
2023/10/21 02:23:20;;;;;;;;;6.00;4.00;;;;;17.41;72.87;100880.34;146626;580;45016;-69
2023/10/21 02:26:21;;;;;;;;;7.67;3.67;;;;;17.36;72.59;100865.38;146631;569;45011;-68
2023/10/21 02:29:24;;;;;;;;;6.00;4.00;;;;;17.30;72.95;100868.72;146624;590;46042;-68
2023/10/21 02:32:20;;;;;;;;;5.33;5.00;;;;;17.27;73.57;100879.12;146631;580;45010;-68
2023/10/21 02:35:17;;;;;;;;;5.00;5.00;;;;;17.27;73.71;100884.34;146623;573;46016;-70
2023/10/21 02:38:09;;;;;;;;;4.00;4.00;;;;;17.24;73.41;100871.16;146625;667;47014;-69
2023/10/21 02:41:05;;;;;;;;;6.00;6.00;;;;;17.20;73.17;100871.94;146623;576;46017;-69
2023/10/21 02:43:58;;;;;;;;;5.00;5.00;;;;;17.15;72.89;100874.44;146629;577;46010;-69
2023/10/21 02:46:50;;;;;;;;;6.67;6.67;;;;;17.17;73.14;100872.75;146626;621;46012;-70
2023/10/21 02:49:52;;;;;;;;;4.33;4.00;;;;;17.24;73.02;100884.28;146627;631;46041;-68
2023/10/21 02:52:53;;;;;;;;;6.00;4.00;;;;;17.27;73.28;100884.34;146629;586;46012;-69
2023/10/21 02:55:51;;;;;;;;;8.00;5.67;;;;;17.25;73.14;100876.44;146623;570;45021;-68
2023/10/21 02:58:44;;;;;;;;;4.00;2.67;;;;;17.22;73.55;100878.09;146623;657;46010;-68
2023/10/21 03:01:48;;;;;;;;;3.67;3.67;;;;;17.20;73.76;100882.44;146627;587;45020;-69
2023/10/21 03:04:41;;;;;;;;;6.67;5.67;;;;;17.21;74.52;100892.06;146623;569;48012;-69
2023/10/21 03:07:39;;;;;;;;;3.00;3.00;;;;;17.21;74.57;100882.44;146625;631;45020;-69
2023/10/21 03:10:41;;;;;;;;;7.00;4.67;;;;;17.24;74.60;100881.66;146626;583;46016;-70
2023/10/21 03:13:46;;;;;;;;;6.33;4.00;;;;;17.25;75.28;100881.69;146626;566;46010;-68
2023/10/21 03:16:48;;;;;;;;;;;;;;;;;;;;;
2023/10/21 03:19:40;;;;;;;;;8.00;7.00;;;;;17.33;76.40;100875.78;146631;566;45010;-69
2023/10/21 03:22:48;;;;;;;;;7.00;6.00;;;;;17.29;75.78;100885.28;146622;587;48010;-69
2023/10/21 03:25:51;;;;;;;;;6.00;6.00;;;;;17.25;76.32;100886.03;146630;600;46010;-68
2023/10/21 03:28:53;;;;;;;;;8.00;7.00;;;;;17.21;77.35;100887.69;146618;570;46012;-68
2023/10/21 03:32:01;;;;;;;;;7.33;6.67;;;;;15.90;77.44;100657.16;146628;673;46011;-69
2023/10/21 03:34:57;;;;;;;;;6.67;6.67;;;;;17.20;77.83;100883.31;146626;604;45016;-67
2023/10/21 03:37:49;;;;;;;;;8.33;7.00;;;;;17.21;77.75;100871.97;146629;717;46010;-67
2023/10/21 03:40:48;;;;;;;;;8.67;6.00;;;;;17.20;77.72;100880.69;146626;599;45016;-67
2023/10/21 03:43:41;;;;;;;;;7.67;7.00;;;;;17.16;77.54;100885.78;146631;570;45010;-67
2023/10/21 03:46:38;;;;;;;;;8.67;6.67;;;;;17.16;77.72;100891.91;146622;651;46017;-68
2023/10/21 03:49:43;;;;;;;;;6.00;6.00;;;;;15.89;76.55;100666.75;146628;612;45917;-67
2023/10/21 03:52:42;;;;;;;;;9.67;8.33;;;;;17.14;76.80;100882.25;146626;590;46013;-68
2023/10/21 03:55:37;;;;;;;;;9.33;7.00;;;;;17.11;77.69;100890.03;146629;572;45020;-68
2023/10/21 03:58:30;;;;;;;;;8.00;6.00;;;;;17.12;77.87;100887.44;146624;569;45016;-69
2023/10/21 04:01:25;;;;;;;;;6.33;5.33;;;;;17.14;77.51;100888.37;146629;613;45918;-69
2023/10/21 04:04:29;;;;;;;;;8.33;5.67;;;;;17.15;76.75;100878.78;146629;584;46012;-70
2023/10/21 04:07:24;;;;;;;;;8.67;6.67;;;;;17.13;76.68;100888.31;146627;566;45020;-70
2023/10/21 04:10:31;;;;;;;;;9.00;6.00;;;;;17.08;76.77;100890.84;146626;582;46010;-69
2023/10/21 04:13:29;;;;;;;;;12.33;8.33;;;;;17.06;77.60;100890.78;146630;592;45010;-68
2023/10/21 04:16:26;;;;;;;;;15.33;8.67;;;;;17.03;79.17;100884.56;146607;578;46016;-68
2023/10/21 04:19:27;;;;;;;;;9.00;7.33;;;;;16.96;79.65;100885.25;146609;643;46020;-68
2023/10/21 04:22:21;;;;;;;;;10.00;6.67;;;;;16.93;80.52;100886.06;146606;603;46013;-68
2023/10/21 04:25:17;;;;;;;;;11.67;7.33;;;;;16.94;80.14;100886.94;146606;610;46010;-69
2023/10/21 04:28:16;;;;;;;;;12.75;8.00;;;;;16.97;79.96;100892.25;146604;575;46016;-70
2023/10/21 04:31:22;;;;;;;;;10.33;8.00;;;;;16.92;79.46;100883.41;146607;582;46010;-69
2023/10/21 04:34:25;;;;;;;;;14.33;9.00;;;;;16.95;80.07;100899.22;146606;563;46016;-68
2023/10/21 04:37:21;;;;;;;;;9.50;7.00;;;;;16.38;79.83;100798.03;146609;584;46011;-70
2023/10/21 04:40:20;;;;;;;;;8.67;6.00;;;;;17.01;79.69;100895.03;146605;570;46012;-69
2023/10/21 04:43:19;;;;;;;;;7.33;6.00;;;;;17.02;79.34;100893.28;146604;647;47915;-68
2023/10/21 04:46:12;;;;;;;;;9.00;7.00;;;;;17.05;78.11;100893.38;146605;643;46012;-69
2023/10/21 04:49:07;;;;;;;;;8.00;6.00;;;;;17.09;78.54;100888.25;146609;593;46010;-68
2023/10/21 04:52:05;;;;;;;;;9.00;6.67;;;;;17.15;78.23;100894.50;146603;586;46017;-68
2023/10/21 04:54:57;;;;;;;;;9.33;5.33;;;;;17.22;78.31;100899.06;146609;609;47014;-68
2023/10/21 04:57:52;;;;;;;;;5.67;5.67;;;;;17.29;77.33;100899.28;146604;647;46014;-67
2023/10/21 05:00:49;;;;;;;;;7.33;6.00;;;;;17.36;77.07;100896.81;146609;576;46018;-68
2023/10/21 05:03:44;;;;;;;;;10.00;5.33;;;;;17.41;77.61;100903.94;146608;592;46016;-70
2023/10/21 05:06:36;;;;;;;;;8.00;6.33;;;;;17.48;77.74;100902.38;146608;576;46015;-71
2023/10/21 05:09:31;;;;;;;;;8.67;7.33;;;;;17.58;78.18;100900.88;146606;590;46916;-70
2023/10/21 05:12:25;;;;;;;;;10.00;7.67;;;;;17.06;78.05;100811.28;146606;566;46010;-71
2023/10/21 05:15:17;;;;;;;;;9.00;8.00;;;;;17.76;78.47;100922.34;146607;637;46017;-71
2023/10/21 05:18:12;;;;;;;;;11.33;9.33;;;;;17.89;78.56;100913.94;146608;620;46020;-72
2023/10/21 05:21:14;;;;;;;;;8.33;8.00;;;;;18.13;78.99;100915.34;146606;638;46016;-71
2023/10/21 05:24:18;;;;;;;;;9.33;7.00;;;;;18.60;78.47;100918.19;146607;634;47010;-70
2023/10/21 05:27:18;;;;;;;;;7.00;6.00;;;;;19.21;79.68;100923.84;146605;578;46016;-68
2023/10/21 05:30:19;;;;;;;;;8.00;6.00;;;;;19.90;77.54;100923.34;146608;677;46021;-68
2023/10/21 05:33:20;;;;;;;;;8.00;7.00;;;;;20.60;73.43;100926.19;146606;645;46016;-68
2023/10/21 05:36:15;;;;;;;;;10.00;6.33;;;;;21.27;70.38;100939.28;146608;645;47014;-68
2023/10/21 05:39:12;;;;;;;;;10.33;7.00;;;;;21.78;69.99;100939.84;146598;602;49012;-68
2023/10/21 05:42:06;;;;;;;;;11.67;7.67;;;;;22.31;67.08;100942.94;146605;571;46020;-68
2023/10/21 05:45:04;;;;;;;;;7.33;7.00;;;;;22.77;64.09;100944.94;146604;632;47012;-69
2023/10/21 05:48:07;;;;;;;;;10.33;8.67;;;;;23.10;64.68;100949.50;146608;591;46020;-69
2023/10/21 05:51:17;;;;;;;;;13.00;11.00;;;;;22.46;65.59;100769.50;146607;618;46016;-70
2023/10/21 05:54:23;;;;;;;;;8.00;6.33;;;;;22.94;63.33;100759.97;146609;680;46010;-69
2023/10/21 05:57:27;;;;;;;;;8.00;8.00;;;;;24.48;62.65;100951.44;146606;595;46015;-69
2023/10/21 06:00:33;;;;;;;;;9.33;8.33;;;;;23.83;61.85;100760.81;146612;606;46010;-69
2023/10/21 06:03:35;;;;;;;;;10.67;9.00;;;;;25.31;60.22;100949.37;146604;637;46016;-70
2023/10/21 06:06:27;;;;;;;;;9.67;9.67;;;;;25.60;59.72;100957.12;146610;656;46002;-68
2023/10/21 06:09:31;;;;;;;;;8.67;7.67;;;;;25.27;57.78;100874.19;146604;593;46012;-69
2023/10/21 06:12:28;;;;;;;;;9.00;8.00;;;;;25.78;57.11;100972.06;146607;580;46010;-68
2023/10/21 06:15:23;;;;;;;;;12.67;9.00;;;;;25.59;56.98;100971.31;146602;635;46916;-68
2023/10/21 06:18:25;;;;;;;;;11.00;9.33;;;;;25.19;56.76;100973.31;146608;627;47020;-69
2023/10/21 06:21:35;;;;;;;;;13.00;8.00;;;;;24.66;58.17;100984.06;146606;570;47012;-68
2023/10/21 06:24:30;;;;;;;;;12.33;12.00;;;;;24.14;58.48;100991.19;146606;580;47010;-71
2023/10/21 06:27:28;;;;;;;;;24.33;18.00;;;;;23.71;60.60;101001.78;146605;672;46013;-72
2023/10/21 06:30:32;;;;;;;;;16.00;11.67;;;;;23.34;62.84;101000.75;146606;588;46020;-74
2023/10/21 06:33:27;;;;;;;;;13.00;11.00;;;;;23.04;63.59;100997.97;146605;646;48012;-74
2023/10/21 06:36:34;;;;;;;;;13.00;11.67;;;;;22.80;65.08;101008.38;146608;622;46052;-74
2023/10/21 06:39:29;;;;;;;;;13.33;11.00;;;;;22.60;66.00;101022.38;146605;580;46016;-74
2023/10/21 06:42:24;;;;;;;;;11.00;9.33;;;;;22.46;67.83;101023.16;146607;594;46020;-74
2023/10/21 06:45:24;;;;;;;;;12.67;11.00;;;;;22.36;67.63;101030.13;146607;601;46016;-73
2023/10/21 06:48:28;;;;;;;;;11.00;7.67;;;;;22.28;67.69;101030.09;146606;571;46020;-74
2023/10/21 06:52:00;;;;;;;;;17.33;12.00;;;;;21.03;67.90;100825.66;146605;588;46014;-73
2023/10/21 06:54:54;;;;;;;;;11.67;10.00;;;;;22.18;67.57;101027.34;146605;585;46020;-73
2023/10/21 06:57:58;;;;;;;;;15.00;12.00;;;;;22.16;68.75;101035.25;146607;649;46016;-73
2023/10/21 07:01:04;;;;;;;;;16.00;13.00;;;;;22.18;68.55;101032.63;146609;569;46010;-70
2023/10/21 07:04:02;;;;;;;;;12.00;10.67;;;;;22.18;68.72;101037.91;146603;645;46016;-71
2023/10/21 07:06:54;;;;;;;;;13.33;11.00;;;;;22.20;70.05;101044.97;146606;588;47010;-74
2023/10/21 07:10:09;;;;;;;;;15.33;12.00;;;;;22.29;70.99;101039.75;146606;593;46010;-73
2023/10/21 07:13:05;;;;;;;;;18.00;10.50;;;;;22.40;70.39;101038.94;146606;628;45585;-74
2023/10/21 07:16:10;;;;;;;;;14.33;13.00;;;;;22.51;70.21;101048.75;146604;572;46016;-74
2023/10/21 07:19:12;;;;;;;;;;;;;;;;;;;;;
2023/10/21 07:22:14;;;;;;;;;15.25;13.00;;;;;22.81;69.96;101058.66;146597;573;48019;-74
2023/10/21 07:25:06;;;;;;;;;13.00;12.00;;;;;23.01;69.72;101058.78;146602;627;47014;-73
2023/10/21 07:28:06;;;;;;;;;16.50;12.50;;;;;23.26;69.04;101050.97;146604;581;46017;-72
2023/10/21 07:31:04;;;;;;;;;15.33;13.33;;;;;23.51;68.45;101052.84;146607;575;46020;-73
2023/10/21 07:34:13;;;;;;;;;17.75;16.50;;;;;23.83;67.48;101048.53;146604;570;46014;-73
2023/10/21 07:37:05;;;;;;;;;21.50;19.00;;;;;23.98;65.75;101054.75;146608;631;46010;-73
2023/10/21 07:39:59;;;;;;;;;21.25;19.25;;;;;24.07;66.15;101042.41;146603;569;46915;-74
2023/10/21 07:43:03;;;;;;;;;25.25;21.75;;;;;24.28;66.79;101049.50;146605;564;46014;-73
2023/10/21 07:46:04;;;;;;;;;27.50;22.50;;;;;24.52;66.35;101052.16;146605;588;46014;-73
2023/10/21 07:48:58;;;;;;;;;25.00;19.50;;;;;24.78;65.25;101045.94;146606;623;46030;-72
2023/10/21 07:51:54;;;;;;;;;31.25;25.25;;;;;24.95;63.63;101046.75;146603;575;47012;-71
2023/10/21 07:54:56;;;;;;;;;28.75;26.25;;;;;25.02;63.41;101047.66;146604;636;46029;-71
2023/10/21 07:57:58;;;;;;;;;29.50;21.75;;;;;25.10;63.40;101048.50;146605;694;46017;-72
2023/10/21 08:00:56;;;;;;;;;30.50;28.00;;;;;25.19;62.07;101040.53;146605;594;47014;-70
2023/10/21 08:03:48;;;;;;;;;34.50;30.25;;;;;25.19;62.38;101035.22;146605;566;46013;-70
2023/10/21 08:06:46;;;;;;;;;30.00;26.50;;;;;25.16;62.15;101042.31;146608;579;45020;-70
2023/10/21 08:09:38;;;;;;;;;32.00;27.50;;;;;25.17;62.09;101036.13;146601;575;47016;-70
2023/10/21 08:12:39;;;;;;;;;39.75;32.25;;;;;25.27;62.33;101044.06;146607;578;46011;-70
2023/10/21 08:15:38;;;;;;;;;34.75;29.75;;;;;25.45;62.37;101035.12;146602;626;46016;-70
2023/10/21 08:18:31;;;;;;;;;34.25;28.75;;;;;25.66;61.98;101034.09;146605;637;46020;-70
2023/10/21 08:21:24;;;;;;;;;29.25;24.75;;;;;25.91;60.79;101041.94;146603;663;47014;-70
2023/10/21 08:24:26;;;;;;;;;21.25;21.00;;;;;26.06;60.98;101038.31;146608;744;46010;-70
2023/10/21 08:27:32;;;;;;;;;29.75;25.00;;;;;26.19;61.87;101032.88;146606;625;46017;-70
2023/10/21 08:30:24;;;;;;;;;27.25;25.25;;;;;26.27;60.30;101046.13;146607;570;46020;-71
2023/10/21 08:33:33;;;;;;;;;27.50;24.00;;;;;26.35;60.59;101036.28;146605;570;46015;-69
2023/10/21 08:36:29;;;;;;;;;27.50;21.00;;;;;26.51;59.83;101042.38;146605;569;46010;-70
2023/10/21 08:39:25;;;;;;;;;26.25;21.50;;;;;26.65;59.17;101053.78;146604;683;46016;-70
2023/10/21 08:42:26;;;;;;;;;28.00;23.00;;;;;26.80;60.23;101051.88;146608;584;45029;-71
2023/10/21 08:45:40;;;;;;;;;21.75;19.50;;;;;26.95;60.95;101047.25;146605;668;46915;-70
2023/10/21 08:48:34;;;;;;;;;20.67;18.67;;;;;27.12;59.29;101055.03;146608;670;46012;-70
2023/10/21 08:51:36;;;;;;;;;18.75;15.75;;;;;27.21;59.68;101047.88;146603;569;46012;-69
2023/10/21 08:54:35;;;;;;;;;19.25;16.50;;;;;27.26;59.45;101052.25;146606;577;46020;-70
2023/10/21 08:57:33;;;;;;;;;14.67;11.33;;;;;27.36;58.71;101055.69;146603;685;46016;-70
2023/10/21 09:00:31;;;;;;;;;16.00;12.67;;;;;27.50;58.33;101052.81;146609;614;46020;-70
2023/10/21 09:03:27;;;;;;;;;12.67;11.00;;;;;27.68;58.33;101044.59;146607;598;46013;-70
2023/10/21 09:06:30;;;;;;;;;18.00;13.33;;;;;27.88;57.55;101052.31;146606;574;46020;-72
2023/10/21 09:09:36;;;;;;;;;10.00;10.00;;;;;27.95;55.41;101059.31;146605;554;46916;-70
2023/10/21 09:12:29;;;;;;;;;8.00;7.33;;;;;27.84;51.95;101059.47;146607;564;46010;-69
2023/10/21 09:15:46;;;;;;;;;9.00;9.00;;;;;27.63;57.63;101054.41;146607;660;46016;-70
2023/10/21 09:18:43;;;;;;;;;11.00;9.00;;;;;27.53;54.45;101056.31;146606;671;46021;-69
2023/10/21 09:21:54;;;;;;;;;10.00;9.00;;;;;27.50;56.38;101059.03;146606;584;47014;-70
2023/10/21 09:24:46;;;;;;;;;13.00;9.33;;;;;27.58;55.39;101051.81;146607;605;47010;-69
2023/10/21 09:27:57;;;;;;;;;8.67;8.33;;;;;27.72;53.15;101051.63;146608;590;46012;-71
2023/10/21 09:31:05;;;;;;;;;6.67;6.67;;;;;27.76;55.44;101050.69;146606;581;46020;-71
2023/10/21 09:34:08;;;;;;;;;11.00;8.00;;;;;27.77;55.26;101043.56;146603;572;46916;-71
2023/10/21 09:37:02;;;;;;;;;8.00;8.00;;;;;27.86;54.78;101040.81;146606;591;46020;-71
2023/10/21 09:40:00;;;;;;;;;11.67;10.00;;;;;27.92;53.24;101037.19;146606;619;46016;-71
2023/10/21 09:43:02;;;;;;;;;12.67;9.67;;;;;27.88;54.49;101041.66;146605;633;46010;-70
2023/10/21 09:46:06;;;;;;;;;10.67;10.67;;;;;27.82;55.07;101045.31;146606;569;46012;-71
2023/10/21 09:49:11;;;;;;;;;12.00;8.67;;;;;27.72;55.35;101043.63;146605;652;46021;-71
2023/10/21 09:52:22;;;;;;;;;12.33;10.67;;;;;27.56;58.12;101040.31;146603;648;46016;-71
2023/10/21 09:55:24;;;;;;;;;12.00;12.00;;;;;27.37;57.04;101042.34;146610;621;46010;-71
2023/10/21 09:58:22;;;;;;;;;12.33;9.33;;;;;27.26;57.52;101033.63;146604;563;46915;-71
2023/10/21 10:01:23;;;;;;;;;10.00;9.67;;;;;27.35;58.51;101028.19;146607;589;47010;-71
2023/10/21 10:04:30;;;;;;;;;13.33;9.33;;;;;27.50;54.47;101021.75;146604;570;47012;-72
2023/10/21 10:07:39;;;;;;;;;10.50;10.50;;;;;27.61;55.46;101014.50;146606;618;47010;-71
2023/10/21 10:10:38;;;;;;;;;10.33;10.00;;;;;27.76;57.41;101016.06;146603;643;46017;-71
2023/10/21 10:13:34;;;;;;;;;10.67;10.00;;;;;27.96;55.19;101007.78;146606;600;46020;-72
2023/10/21 10:16:33;;;;;;;;;10.67;9.33;;;;;28.25;55.98;101001.06;146603;678;47016;-71
2023/10/21 10:19:50;;;;;;;;;8.67;8.67;;;;;28.57;57.70;101002.31;146606;579;46021;-71
2023/10/21 10:22:46;;;;;;;;;13.67;10.67;;;;;28.82;53.77;101000.94;146605;615;47014;-71
2023/10/21 10:25:51;;;;;;;;;12.00;8.33;;;;;28.93;51.20;100988.25;146604;585;46021;-71
2023/10/21 10:28:52;;;;;;;;;10.67;9.33;;;;;29.12;53.98;100988.78;146603;581;47012;-71
2023/10/21 10:32:04;;;;;;;;;9.00;8.67;;;;;29.31;52.58;100988.38;146610;617;46010;-72
2023/10/21 10:35:07;;;;;;;;;8.67;8.33;;;;;29.45;51.33;100989.84;146608;622;46017;-71
2023/10/21 10:38:03;;;;;;;;;9.33;9.00;;;;;29.51;51.35;100994.16;146607;644;47020;-71
2023/10/21 10:41:25;;;;;;;;;12.00;9.00;;;;;29.58;53.42;100995.78;146601;588;46033;-71
2023/10/21 10:44:30;;;;;;;;;9.67;9.00;;;;;29.47;51.21;100989.78;146607;618;46020;-71
2023/10/21 10:47:32;;;;;;;;;13.00;10.67;;;;;29.31;50.08;100981.22;146605;672;47017;-71
2023/10/21 10:50:48;;;;;;;;;9.00;9.00;;;;;29.03;50.86;100983.63;146609;606;46010;-71
2023/10/21 10:54:00;;;;;;;;;8.67;8.67;;;;;28.64;50.83;100990.63;146605;643;46024;-71
2023/10/21 10:57:05;;;;;;;;;12.33;10.33;;;;;28.31;53.71;100976.97;146609;575;46020;-71
2023/10/21 11:00:20;;;;;;;;;13.00;11.00;;;;;28.17;54.91;100989.69;146607;624;46014;-70
2023/10/21 11:03:36;;;;;;;;;8.00;6.00;;;;;28.11;52.66;100985.31;146608;595;46020;-72
2023/10/21 11:06:51;;;;;;;;;11.00;11.00;;;;;28.00;54.17;100973.94;146605;594;47016;-70
2023/10/21 11:10:46;;;;;;;;;10.00;9.67;;;;;26.97;55.06;100789.09;146609;553;46011;-72
2023/10/21 11:13:45;;;;;;;;;11.33;10.33;;;;;27.62;53.27;100891.03;146604;569;46913;-74
2023/10/21 11:16:42;;;;;;;;;11.00;7.33;;;;;28.21;51.26;100973.59;146626;609;45020;-69
2023/10/21 11:19:47;;;;;;;;;10.00;9.33;;;;;28.27;53.62;100961.94;146618;613;48010;-69
2023/10/21 11:22:45;;;;;;;;;11.33;9.00;;;;;28.31;50.92;100959.16;146629;571;46010;-69
2023/10/21 11:25:58;;;;;;;;;10.67;10.33;;;;;28.34;51.45;100955.56;146625;565;45013;-69
2023/10/21 11:28:55;;;;;;;;;14.67;10.00;;;;;28.29;50.65;100942.34;146629;622;45020;-68
2023/10/21 11:32:00;;;;;;;;;8.33;8.33;;;;;28.41;53.91;100946.59;146627;580;46012;-68
2023/10/21 11:35:35;;;;;;;;;;;;;;;;;;;;;
2023/10/21 11:38:32;;;;;;;;;12.00;9.00;;;;;28.39;47.31;100936.84;146619;622;46012;-69
2023/10/21 11:41:30;;;;;;;;;11.00;10.00;;;;;28.27;46.98;100933.47;146626;664;46010;-68
2023/10/21 11:44:33;;;;;;;;;8.67;8.67;;;;;28.19;49.81;100927.41;146626;577;45016;-69
2023/10/21 11:47:51;;;;;;;;;;;;;;;;;;;;;
2023/10/21 11:50:48;;;;;;;;;9.00;6.67;;;;;28.14;46.91;100931.94;146625;571;45016;-68
2023/10/21 11:53:50;;;;;;;;;8.00;8.00;;;;;28.05;44.18;100926.78;146624;641;46011;-68
2023/10/21 12:17:51;;;;;;;;;11.67;9.33;;;;;28.26;51.42;100925.53;146624;585;45016;-69
2023/10/21 12:28:13;;;;;;;;;10.00;9.67;;;;;28.80;49.48;100924.50;146626;580;45020;-68
2023/10/21 12:34:37;;;;;;;;;9.33;8.00;;;;;28.90;48.26;100921.56;146629;602;46010;-67
2023/10/21 12:41:16;;;;;;;;;11.00;9.00;;;;;28.85;43.30;100935.94;146629;570;45020;-67
2023/10/21 12:44:36;;;;;;;;;7.33;7.00;;;;;28.78;48.23;100940.50;146626;597;45014;-69
2023/10/21 12:47:33;;;;;;;;;14.67;11.00;;;;;28.75;47.18;100933.47;146627;603;45021;-67
2023/10/21 12:50:43;;;;;;;;;10.67;9.67;;;;;28.71;46.23;100926.44;146627;676;46012;-68
2023/10/21 12:53:38;;;;;;;;;10.00;8.00;;;;;28.63;46.88;100915.06;146626;583;46010;-67
2023/10/21 12:56:33;;;;;;;;;9.67;8.00;;;;;28.53;43.02;100917.00;146623;580;46010;-67
2023/10/21 12:59:33;;;;;;;;;15.00;11.00;;;;;28.51;47.33;100924.16;146628;626;45010;-68
2023/10/21 13:02:48;;;;;;;;;9.33;8.33;;;;;28.56;46.34;100916.06;146626;565;45023;-68
2023/10/21 13:06:06;;;;;;;;;8.67;7.67;;;;;27.71;48.70;100746.16;146624;628;46020;-68
2023/10/21 13:08:58;;;;;;;;;12.67;8.33;;;;;28.75;46.02;100912.13;146627;569;45017;-68
2023/10/21 13:11:58;;;;;;;;;10.00;7.00;;;;;28.78;47.13;100903.16;146627;623;45020;-68
2023/10/21 13:15:07;;;;;;;;;11.00;9.33;;;;;28.85;45.77;100903.91;146616;649;47012;-69
2023/10/21 13:18:25;;;;;;;;;15.00;10.00;;;;;28.91;49.48;100904.66;146607;566;47010;-68
2023/10/21 13:21:36;;;;;;;;;13.00;13.00;;;;;28.94;48.71;100903.69;146606;565;46014;-69
2023/10/21 13:24:41;;;;;;;;;12.33;10.00;;;;;28.92;49.46;100901.09;146606;612;46030;-68
2023/10/21 13:27:37;;;;;;;;;10.00;9.67;;;;;28.92;46.70;100901.09;146607;695;46012;-69
2023/10/21 13:30:39;;;;;;;;;12.33;11.00;;;;;28.93;46.17;100891.28;146608;617;46011;-67
2023/10/21 13:33:37;;;;;;;;;10.33;9.67;;;;;28.95;48.38;100898.34;146605;579;46016;-69
2023/10/21 13:36:42;;;;;;;;;11.33;10.67;;;;;28.88;48.26;100896.72;146607;627;47010;-68
2023/10/21 13:39:40;;;;;;;;;9.67;9.00;;;;;28.82;49.82;100898.63;146604;652;47016;-68
2023/10/21 13:42:38;;;;;;;;;12.00;10.00;;;;;28.76;49.07;100895.19;146609;617;46020;-68
2023/10/21 13:45:40;;;;;;;;;12.67;10.33;;;;;28.66;49.60;100895.41;146604;605;46016;-68
2023/10/21 13:48:36;;;;;;;;;11.67;11.00;;;;;28.55;49.74;100896.50;146606;619;47010;-69
2023/10/21 13:51:43;;;;;;;;;12.00;11.67;;;;;28.46;50.69;100898.50;146605;569;46016;-68
2023/10/21 13:55:03;;;;;;;;;11.67;11.33;;;;;28.37;50.40;100902.19;146609;580;47010;-66
2023/10/21 13:58:29;;;;;;;;;;;;;;;;;;;;;
2023/10/21 14:01:43;;;;;;;;;11.00;9.33;;;;;28.13;53.61;100897.31;146607;570;47010;-68
2023/10/21 14:05:10;;;;;;;;;9.33;9.00;;;;;27.00;53.51;100729.63;146601;648;47012;-68
2023/10/21 14:08:24;;;;;;;;;11.33;10.00;;;;;26.47;53.19;100655.94;146607;580;47020;-68
2023/10/21 14:11:35;;;;;;;;;13.67;12.33;;;;;27.77;54.57;100905.03;146601;585;47014;-68
2023/10/21 14:15:05;;;;;;;;;9.67;8.67;;;;;26.94;55.51;100794.47;146609;564;46011;-68
2023/10/21 14:17:57;;;;;;;;;10.33;9.67;;;;;27.44;55.13;100903.78;146603;646;46016;-68
2023/10/21 14:21:00;;;;;;;;;10.33;9.67;;;;;27.28;56.29;100901.34;146602;569;48924;-69
2023/10/21 14:24:13;;;;;;;;;11.33;9.00;;;;;27.20;55.63;100897.94;146608;604;46014;-71
2023/10/21 14:27:22;;;;;;;;;9.67;9.67;;;;;27.18;55.58;100905.94;146609;586;46010;-72
2023/10/21 14:30:26;;;;;;;;;10.00;9.00;;;;;27.16;52.84;100899.72;146606;632;46013;-73
2023/10/21 14:33:34;;;;;;;;;10.00;8.00;;;;;26.06;53.29;100708.81;146607;565;46010;-72
2023/10/21 14:36:55;;;;;;;;;9.00;7.67;;;;;27.09;51.74;100894.50;146606;574;46016;-72
2023/10/21 14:39:59;;;;;;;;;12.00;10.33;;;;;25.86;53.57;100699.31;146609;588;46014;-72